Time;durP1;ratioP1;P1;durP2;ratioP2;P2;SDS_P1;SDS_P2;PMS_P1;PMS_P2;Temp;Humidity;BMP_temperature;BMP_pressure;BME280_temperature;BME280_humidity;BME280_pressure;Samples;Min_cycle;Max_cycle;Signal;HPM_P1;HPM_P2
2022/03/28 18:25:46;;;;;;;;;;;11.60;96.10;;;;;;5070446;28;20414;-45
2022/03/28 18:28:12;;;;;;;53.65;29.65;;;11.50;96.40;;;;;;5061826;28;20392;-44
2022/03/28 18:30:40;;;;;;;55.22;31.58;;;11.50;96.40;;;;;;5049977;28;20095;-51
2022/03/28 18:33:06;;;;;;;53.50;30.90;;;11.60;96.50;;;;;;5051074;28;20055;-49
2022/03/28 18:35:33;;;;;;;46.97;31.02;;;11.60;96.60;;;;;;5050284;28;20039;-47
2022/03/28 18:38:00;;;;;;;55.10;31.98;;;11.60;96.20;;;;;;5050362;28;20124;-48
2022/03/28 18:40:28;;;;;;;51.53;30.80;;;11.70;96.20;;;;;;5050252;28;20453;-47
2022/03/28 18:42:55;;;;;;;47.55;30.60;;;11.70;96.10;;;;;;5050198;28;20049;-49
2022/03/28 18:45:22;;;;;;;49.85;31.20;;;11.80;96.00;;;;;;5050071;28;20133;-50
2022/03/28 18:47:49;;;;;;;47.63;31.45;;;11.80;95.80;;;;;;5050156;28;20049;-48
2022/03/28 18:50:15;;;;;;;52.15;31.58;;;11.80;95.80;;;;;;5050168;28;20068;-44
2022/03/28 18:52:42;;;;;;;49.78;31.42;;;11.80;95.80;;;;;;5050040;28;20411;-49
2022/03/28 18:55:09;;;;;;;52.05;29.65;;;11.90;95.70;;;;;;5049957;28;20072;-47
2022/03/28 18:57:36;;;;;;;53.63;31.13;;;11.80;95.70;;;;;;5049972;28;20056;-47
2022/03/28 19:00:02;;;;;;;52.22;30.50;;;11.80;95.80;;;;;;5050580;28;20060;-47
2022/03/28 19:02:31;;;;;;;42.75;30.63;;;11.80;95.80;;;;;;5048811;28;20083;-52
2022/03/28 19:04:58;;;;;;;54.38;30.60;;;11.70;95.90;;;;;;5049793;28;20056;-51
2022/03/28 19:07:25;;;;;;;48.63;30.30;;;11.60;95.90;;;;;;5049979;28;20037;-50
2022/03/28 19:09:52;;;;;;;50.38;30.63;;;11.60;96.10;;;;;;5054852;28;20132;-54
2022/03/28 19:12:19;;;;;;;52.15;30.45;;;11.60;96.10;;;;;;5043210;28;20041;-48
2022/03/28 19:14:46;;;;;;;47.05;30.48;;;11.50;96.20;;;;;;5049634;28;20099;-52
2022/03/28 19:17:13;;;;;;;59.30;31.52;;;11.50;96.30;;;;;;5049048;28;20132;-53
2022/03/28 19:19:39;;;;;;;52.03;30.83;;;11.50;96.20;;;;;;5049784;28;20065;-55
2022/03/28 19:22:06;;;;;;;50.42;31.95;;;11.40;96.30;;;;;;5049492;28;20037;-46
2022/03/28 19:24:34;;;;;;;49.92;31.67;;;11.40;96.40;;;;;;5049273;28;20555;-53
2022/03/28 19:27:02;;;;;;;52.75;32.58;;;11.40;96.30;;;;;;5049253;28;20076;-50
2022/03/28 19:29:30;;;;;;;53.63;32.05;;;11.40;96.40;;;;;;5047965;28;20040;-50
2022/03/28 19:31:57;;;;;;;49.55;32.63;;;11.40;96.30;;;;;;5048140;28;20091;-50
2022/03/28 19:34:25;;;;;;;49.25;31.95;;;11.40;96.40;;;;;;5049481;28;20045;-52
2022/03/28 19:37:11;;;;;;;57.08;33.08;;;11.40;96.30;;;;;;5035516;28;20046;-48
2022/03/28 19:39:38;;;;;;;49.78;31.77;;;11.40;96.40;;;;;;5037135;28;20467;-53
2022/03/28 19:42:05;;;;;;;46.88;31.27;;;11.30;96.40;;;;;;5035982;28;20061;-51
2022/03/28 19:44:32;;;;;;;49.92;30.88;;;11.30;96.50;;;;;;5035928;28;20042;-54
2022/03/28 19:46:59;;;;;;;55.78;32.05;;;11.20;96.50;;;;;;5035792;28;20498;-53
2022/03/28 19:49:28;;;;;;;48.42;30.35;;;11.20;96.50;;;;;;5035742;28;20366;-52
2022/03/28 19:51:55;;;;;;;42.40;28.77;;;11.20;96.70;;;;;;5037830;28;20043;-46
2022/03/28 19:54:40;;;;;;;47.75;28.65;;;11.10;96.70;;;;;;5035671;28;20052;-50
2022/03/28 19:57:08;;;;;;;49.22;29.48;;;11.10;96.60;;;;;;5035553;28;20060;-46
2022/03/28 19:59:35;;;;;;;46.88;26.75;;;11.00;96.60;;;;;;5035405;28;20107;-51
2022/03/28 20:02:02;;;;;;;46.28;27.95;;;10.90;96.60;;;;;;5035427;28;20401;-46
2022/03/28 20:04:33;;;;;;;46.15;27.73;;;10.90;96.80;;;;;;5033979;28;20045;-49
2022/03/28 20:07:01;;;;;;;44.38;26.55;;;10.80;96.80;;;;;;5035411;28;20051;-53
2022/03/28 20:09:27;;;;;;;43.28;26.00;;;10.70;96.90;;;;;;5035257;28;20555;-54
2022/03/28 20:11:54;;;;;;;37.92;25.10;;;10.70;96.90;;;;;;5036457;28;20048;-53
2022/03/28 20:14:23;;;;;;;41.67;26.58;;;10.60;97.00;;;;;;5035257;28;20041;-50
2022/03/28 20:16:52;;;;;;;43.90;25.63;;;10.60;97.10;;;;;;5033983;28;20045;-47
2022/03/28 20:19:19;;;;;;;44.10;26.42;;;10.50;97.20;;;;;;5035101;28;20046;-48
2022/03/28 20:21:46;;;;;;;40.67;25.80;;;10.60;97.10;;;;;;5035137;28;20052;-47
2022/03/28 20:24:13;;;;;;;42.65;25.73;;;10.50;97.20;;;;;;5034844;28;20204;-47
2022/03/28 20:26:39;;;;;;;43.80;26.17;;;10.50;97.30;;;;;;5034963;28;20041;-46
2022/03/28 20:29:07;;;;;;;42.10;26.70;;;10.50;97.30;;;;;;5035175;28;20041;-55
2022/03/28 20:31:36;;;;;;;40.00;26.35;;;10.50;97.20;;;;;;5034953;28;20477;-52
2022/03/28 20:34:03;;;;;;;42.58;26.52;;;10.60;97.10;;;;;;5035214;28;20038;-50
2022/03/28 20:36:30;;;;;;;41.88;27.00;;;10.60;97.20;;;;;;5033674;28;20502;-48
2022/03/28 20:38:56;;;;;;;44.95;27.35;;;10.50;97.20;;;;;;5039653;28;20049;-49
2022/03/28 20:41:26;;;;;;;45.45;26.40;;;10.50;97.00;;;;;;5033339;28;20487;-48
2022/03/28 20:43:53;;;;;;;42.05;26.65;;;10.40;97.00;;;;;;5034635;28;20033;-49
2022/03/28 20:46:21;;;;;;;44.03;26.52;;;10.40;97.10;;;;;;5033369;28;20052;-48
2022/03/28 20:48:48;;;;;;;47.28;28.20;;;10.40;97.20;;;;;;5033623;28;20042;-49
2022/03/28 20:51:15;;;;;;;45.35;26.85;;;10.40;97.10;;;;;;5033236;28;20065;-46
2022/03/28 20:53:42;;;;;;;44.83;28.02;;;10.40;96.90;;;;;;5034548;28;20048;-50
2022/03/28 20:56:08;;;;;;;46.33;28.38;;;10.40;96.80;;;;;;5034597;28;20045;-45
2022/03/28 20:58:35;;;;;;;51.00;31.35;;;10.50;96.60;;;;;;5034293;28;20489;-49
2022/03/28 21:01:02;;;;;;;62.55;35.92;;;10.50;96.50;;;;;;5034327;28;20447;-50
2022/03/28 21:03:29;;;;;;;59.70;35.85;;;10.50;96.30;;;;;;5034502;28;20055;-56
2022/03/28 21:05:57;;;;;;;62.63;34.80;;;10.50;96.40;;;;;;5033389;28;20036;-53
